sensor_id;sensor_type;location;lat;lon;timestamp;P1;durP1;ratioP1;P2;durP2;ratioP2
73571;SDS011;61854;48.510;-2.770;2023-03-01T00:00:40;19.73;;;14.57;;
73571;SDS011;61854;48.510;-2.770;2023-03-01T00:03:06;20.92;;;15.13;;
73571;SDS011;61854;48.510;-2.770;2023-03-01T00:05:31;20.45;;;14.77;;
73571;SDS011;61854;48.510;-2.770;2023-03-01T00:07:57;18.77;;;14.23;;
73571;SDS011;61854;48.510;-2.770;2023-03-01T00:10:23;21.77;;;14.88;;
73571;SDS011;61854;48.510;-2.770;2023-03-01T00:12:49;23.23;;;15.23;;
73571;SDS011;61854;48.510;-2.770;2023-03-01T00:15:15;25.60;;;16.33;;
73571;SDS011;61854;48.510;-2.770;2023-03-01T00:17:40;26.02;;;15.73;;
73571;SDS011;61854;48.510;-2.770;2023-03-01T00:20:06;28.75;;;16.85;;
73571;SDS011;61854;48.510;-2.770;2023-03-01T00:22:36;24.65;;;16.08;;
73571;SDS011;61854;48.510;-2.770;2023-03-01T00:25:02;27.17;;;16.38;;
73571;SDS011;61854;48.510;-2.770;2023-03-01T00:27:28;24.25;;;16.55;;
73571;SDS011;61854;48.510;-2.770;2023-03-01T00:29:54;25.70;;;16.48;;
73571;SDS011;61854;48.510;-2.770;2023-03-01T00:32:20;24.17;;;16.85;;
73571;SDS011;61854;48.510;-2.770;2023-03-01T00:34:46;30.52;;;17.63;;
73571;SDS011;61854;48.510;-2.770;2023-03-01T00:37:19;24.70;;;16.10;;
73571;SDS011;61854;48.510;-2.770;2023-03-01T00:39:46;31.23;;;17.15;;
73571;SDS011;61854;48.510;-2.770;2023-03-01T00:42:11;24.70;;;17.40;;
73571;SDS011;61854;48.510;-2.770;2023-03-01T00:44:37;27.23;;;16.25;;
73571;SDS011;61854;48.510;-2.770;2023-03-01T00:47:03;26.63;;;16.08;;
73571;SDS011;61854;48.510;-2.770;2023-03-01T00:49:28;22.83;;;16.00;;
73571;SDS011;61854;48.510;-2.770;2023-03-01T00:51:54;29.27;;;16.60;;
73571;SDS011;61854;48.510;-2.770;2023-03-01T00:54:20;22.88;;;15.90;;
73571;SDS011;61854;48.510;-2.770;2023-03-01T00:56:45;23.90;;;15.80;;
73571;SDS011;61854;48.510;-2.770;2023-03-01T00:59:11;24.65;;;16.20;;
73571;SDS011;61854;48.510;-2.770;2023-03-01T01:01:37;27.90;;;15.65;;
73571;SDS011;61854;48.510;-2.770;2023-03-01T01:04:07;21.13;;;15.38;;
73571;SDS011;61854;48.510;-2.770;2023-03-01T01:06:36;21.63;;;15.07;;
73571;SDS011;61854;48.510;-2.770;2023-03-01T01:09:09;26.23;;;16.52;;
73571;SDS011;61854;48.510;-2.770;2023-03-01T01:11:41;20.35;;;15.95;;
73571;SDS011;61854;48.510;-2.770;2023-03-01T01:14:15;22.52;;;14.38;;
73571;SDS011;61854;48.510;-2.770;2023-03-01T01:16:42;19.38;;;15.13;;
73571;SDS011;61854;48.510;-2.770;2023-03-01T01:19:09;20.80;;;15.43;;
73571;SDS011;61854;48.510;-2.770;2023-03-01T01:21:36;19.67;;;14.77;;
73571;SDS011;61854;48.510;-2.770;2023-03-01T01:24:02;18.92;;;14.23;;
73571;SDS011;61854;48.510;-2.770;2023-03-01T01:26:30;18.47;;;13.83;;
73571;SDS011;61854;48.510;-2.770;2023-03-01T01:28:57;21.80;;;14.38;;
73571;SDS011;61854;48.510;-2.770;2023-03-01T01:31:24;20.85;;;12.02;;
73571;SDS011;61854;48.510;-2.770;2023-03-01T01:33:51;18.95;;;13.38;;
73571;SDS011;61854;48.510;-2.770;2023-03-01T01:36:17;20.77;;;13.55;;
73571;SDS011;61854;48.510;-2.770;2023-03-01T01:38:43;18.30;;;12.68;;
73571;SDS011;61854;48.510;-2.770;2023-03-01T01:41:09;18.52;;;12.18;;
73571;SDS011;61854;48.510;-2.770;2023-03-01T01:43:43;16.95;;;11.57;;
73571;SDS011;61854;48.510;-2.770;2023-03-01T01:49:03;16.45;;;12.50;;
73571;SDS011;61854;48.510;-2.770;2023-03-01T01:51:38;14.45;;;11.52;;
73571;SDS011;61854;48.510;-2.770;2023-03-01T01:54:11;15.48;;;11.27;;
73571;SDS011;61854;48.510;-2.770;2023-03-01T01:56:42;16.15;;;11.40;;
73571;SDS011;61854;48.510;-2.770;2023-03-01T01:59:13;18.75;;;12.35;;
73571;SDS011;61854;48.510;-2.770;2023-03-01T02:01:39;18.55;;;12.48;;
73571;SDS011;61854;48.510;-2.770;2023-03-01T02:04:05;15.43;;;12.38;;
73571;SDS011;61854;48.510;-2.770;2023-03-01T02:06:37;15.75;;;12.25;;
73571;SDS011;61854;48.510;-2.770;2023-03-01T02:09:08;15.82;;;12.65;;
73571;SDS011;61854;48.510;-2.770;2023-03-01T02:11:38;18.23;;;11.85;;
73571;SDS011;61854;48.510;-2.770;2023-03-01T02:14:04;15.10;;;11.75;;
73571;SDS011;61854;48.510;-2.770;2023-03-01T02:16:30;18.90;;;12.82;;
73571;SDS011;61854;48.510;-2.770;2023-03-01T02:18:58;17.63;;;12.43;;
73571;SDS011;61854;48.510;-2.770;2023-03-01T02:24:02;18.17;;;12.95;;
73571;SDS011;61854;48.510;-2.770;2023-03-01T02:26:40;17.23;;;12.82;;
73571;SDS011;61854;48.510;-2.770;2023-03-01T02:29:09;22.40;;;12.85;;
73571;SDS011;61854;48.510;-2.770;2023-03-01T02:31:35;21.73;;;14.07;;
73571;SDS011;61854;48.510;-2.770;2023-03-01T02:34:08;17.48;;;13.55;;
73571;SDS011;61854;48.510;-2.770;2023-03-01T02:39:18;20.67;;;13.25;;
73571;SDS011;61854;48.510;-2.770;2023-03-01T02:41:53;17.63;;;13.35;;
73571;SDS011;61854;48.510;-2.770;2023-03-01T02:44:20;22.95;;;13.55;;
73571;SDS011;61854;48.510;-2.770;2023-03-01T02:46:55;17.08;;;13.45;;
73571;SDS011;61854;48.510;-2.770;2023-03-01T02:51:54;18.20;;;14.07;;
73571;SDS011;61854;48.510;-2.770;2023-03-01T02:54:31;17.83;;;13.57;;
73571;SDS011;61854;48.510;-2.770;2023-03-01T02:57:21;20.73;;;13.15;;
73571;SDS011;61854;48.510;-2.770;2023-03-01T02:59:48;21.85;;;13.88;;
73571;SDS011;61854;48.510;-2.770;2023-03-01T03:02:23;17.30;;;12.40;;
73571;SDS011;61854;48.510;-2.770;2023-03-01T03:05:04;21.77;;;15.00;;
73571;SDS011;61854;48.510;-2.770;2023-03-01T03:07:33;19.42;;;13.18;;
73571;SDS011;61854;48.510;-2.770;2023-03-01T03:10:00;23.73;;;14.68;;
73571;SDS011;61854;48.510;-2.770;2023-03-01T03:12:28;21.33;;;14.30;;
73571;SDS011;61854;48.510;-2.770;2023-03-01T03:14:53;21.70;;;14.50;;
73571;SDS011;61854;48.510;-2.770;2023-03-01T03:17:19;19.38;;;13.88;;
73571;SDS011;61854;48.510;-2.770;2023-03-01T03:19:45;19.73;;;14.25;;
73571;SDS011;61854;48.510;-2.770;2023-03-01T03:22:11;17.77;;;13.50;;
73571;SDS011;61854;48.510;-2.770;2023-03-01T03:24:37;21.67;;;13.82;;
73571;SDS011;61854;48.510;-2.770;2023-03-01T03:27:03;18.90;;;14.52;;
73571;SDS011;61854;48.510;-2.770;2023-03-01T03:29:30;19.02;;;13.35;;
73571;SDS011;61854;48.510;-2.770;2023-03-01T03:31:55;18.02;;;12.93;;
73571;SDS011;61854;48.510;-2.770;2023-03-01T03:34:21;19.38;;;13.70;;
73571;SDS011;61854;48.510;-2.770;2023-03-01T03:36:47;18.95;;;11.88;;
73571;SDS011;61854;48.510;-2.770;2023-03-01T03:39:12;19.35;;;12.65;;
73571;SDS011;61854;48.510;-2.770;2023-03-01T03:41:38;15.32;;;12.07;;
73571;SDS011;61854;48.510;-2.770;2023-03-01T03:44:06;16.98;;;13.15;;
73571;SDS011;61854;48.510;-2.770;2023-03-01T03:46:32;16.05;;;11.13;;
73571;SDS011;61854;48.510;-2.770;2023-03-01T03:48:58;18.55;;;11.70;;
73571;SDS011;61854;48.510;-2.770;2023-03-01T03:51:23;14.95;;;11.18;;
73571;SDS011;61854;48.510;-2.770;2023-03-01T03:53:49;14.70;;;10.60;;
73571;SDS011;61854;48.510;-2.770;2023-03-01T03:56:15;13.43;;;10.13;;
73571;SDS011;61854;48.510;-2.770;2023-03-01T03:58:40;17.65;;;10.52;;
73571;SDS011;61854;48.510;-2.770;2023-03-01T04:01:06;17.95;;;10.32;;
73571;SDS011;61854;48.510;-2.770;2023-03-01T04:03:32;13.82;;;10.07;;
73571;SDS011;61854;48.510;-2.770;2023-03-01T04:06:00;15.13;;;9.75;;
73571;SDS011;61854;48.510;-2.770;2023-03-01T04:08:27;16.23;;;9.10;;
73571;SDS011;61854;48.510;-2.770;2023-03-01T04:10:57;12.35;;;9.90;;
73571;SDS011;61854;48.510;-2.770;2023-03-01T04:13:25;12.73;;;9.43;;
73571;SDS011;61854;48.510;-2.770;2023-03-01T04:15:52;12.52;;;9.07;;
73571;SDS011;61854;48.510;-2.770;2023-03-01T04:18:19;13.73;;;9.00;;
73571;SDS011;61854;48.510;-2.770;2023-03-01T04:20:46;13.52;;;9.40;;
73571;SDS011;61854;48.510;-2.770;2023-03-01T04:23:16;13.15;;;9.30;;
73571;SDS011;61854;48.510;-2.770;2023-03-01T04:25:46;14.20;;;9.93;;
73571;SDS011;61854;48.510;-2.770;2023-03-01T04:28:14;14.48;;;10.00;;
73571;SDS011;61854;48.510;-2.770;2023-03-01T04:30:40;15.55;;;10.00;;
73571;SDS011;61854;48.510;-2.770;2023-03-01T04:33:07;15.98;;;10.27;;
73571;SDS011;61854;48.510;-2.770;2023-03-01T04:35:34;14.95;;;10.20;;
73571;SDS011;61854;48.510;-2.770;2023-03-01T04:38:00;13.30;;;9.93;;
73571;SDS011;61854;48.510;-2.770;2023-03-01T04:40:26;15.07;;;10.15;;
73571;SDS011;61854;48.510;-2.770;2023-03-01T04:42:52;15.95;;;10.00;;
73571;SDS011;61854;48.510;-2.770;2023-03-01T04:45:18;14.75;;;10.25;;
73571;SDS011;61854;48.510;-2.770;2023-03-01T04:47:44;19.83;;;10.70;;
73571;SDS011;61854;48.510;-2.770;2023-03-01T04:50:12;18.58;;;10.73;;
73571;SDS011;61854;48.510;-2.770;2023-03-01T04:52:39;16.35;;;10.63;;
73571;SDS011;61854;48.510;-2.770;2023-03-01T04:55:05;17.15;;;10.27;;
73571;SDS011;61854;48.510;-2.770;2023-03-01T04:57:31;19.52;;;10.63;;
73571;SDS011;61854;48.510;-2.770;2023-03-01T04:59:57;18.85;;;10.45;;
73571;SDS011;61854;48.510;-2.770;2023-03-01T05:02:23;13.93;;;9.27;;
73571;SDS011;61854;48.510;-2.770;2023-03-01T05:04:49;15.35;;;10.20;;
73571;SDS011;61854;48.510;-2.770;2023-03-01T05:07:15;19.10;;;11.02;;
73571;SDS011;61854;48.510;-2.770;2023-03-01T05:09:45;20.23;;;10.48;;
73571;SDS011;61854;48.510;-2.770;2023-03-01T05:12:11;15.70;;;10.30;;
73571;SDS011;61854;48.510;-2.770;2023-03-01T05:14:38;12.90;;;9.63;;
73571;SDS011;61854;48.510;-2.770;2023-03-01T05:17:04;13.23;;;8.85;;
73571;SDS011;61854;48.510;-2.770;2023-03-01T05:19:30;14.35;;;9.35;;
73571;SDS011;61854;48.510;-2.770;2023-03-01T05:21:58;12.95;;;9.25;;
73571;SDS011;61854;48.510;-2.770;2023-03-01T05:24:31;13.07;;;8.23;;
73571;SDS011;61854;48.510;-2.770;2023-03-01T05:26:59;13.40;;;8.57;;
73571;SDS011;61854;48.510;-2.770;2023-03-01T05:29:26;12.88;;;7.63;;
73571;SDS011;61854;48.510;-2.770;2023-03-01T05:31:56;11.73;;;8.13;;
73571;SDS011;61854;48.510;-2.770;2023-03-01T05:34:31;14.50;;;7.68;;
73571;SDS011;61854;48.510;-2.770;2023-03-01T05:36:59;9.90;;;7.15;;
73571;SDS011;61854;48.510;-2.770;2023-03-01T05:39:25;14.43;;;7.07;;
73571;SDS011;61854;48.510;-2.770;2023-03-01T05:41:53;13.60;;;6.95;;
73571;SDS011;61854;48.510;-2.770;2023-03-01T05:44:20;10.30;;;7.00;;
73571;SDS011;61854;48.510;-2.770;2023-03-01T05:46:46;10.07;;;6.15;;
73571;SDS011;61854;48.510;-2.770;2023-03-01T05:49:12;9.60;;;5.90;;
73571;SDS011;61854;48.510;-2.770;2023-03-01T05:51:42;10.32;;;5.88;;
73571;SDS011;61854;48.510;-2.770;2023-03-01T05:54:12;11.30;;;6.15;;
73571;SDS011;61854;48.510;-2.770;2023-03-01T05:56:37;10.25;;;6.55;;
73571;SDS011;61854;48.510;-2.770;2023-03-01T05:59:04;11.95;;;5.95;;
73571;SDS011;61854;48.510;-2.770;2023-03-01T06:01:30;14.25;;;6.45;;
73571;SDS011;61854;48.510;-2.770;2023-03-01T06:03:57;12.60;;;6.72;;
73571;SDS011;61854;48.510;-2.770;2023-03-01T06:06:23;10.20;;;6.03;;
73571;SDS011;61854;48.510;-2.770;2023-03-01T06:08:49;8.95;;;6.22;;
73571;SDS011;61854;48.510;-2.770;2023-03-01T06:11:16;9.57;;;6.10;;
73571;SDS011;61854;48.510;-2.770;2023-03-01T06:13:42;9.38;;;5.80;;
73571;SDS011;61854;48.510;-2.770;2023-03-01T06:16:09;9.57;;;5.97;;
73571;SDS011;61854;48.510;-2.770;2023-03-01T06:18:35;9.35;;;6.10;;
73571;SDS011;61854;48.510;-2.770;2023-03-01T06:21:02;7.03;;;5.32;;
73571;SDS011;61854;48.510;-2.770;2023-03-01T06:23:28;8.35;;;5.57;;
73571;SDS011;61854;48.510;-2.770;2023-03-01T06:25:57;12.10;;;6.07;;
73571;SDS011;61854;48.510;-2.770;2023-03-01T06:28:23;13.35;;;6.03;;
73571;SDS011;61854;48.510;-2.770;2023-03-01T06:30:49;8.75;;;5.78;;
73571;SDS011;61854;48.510;-2.770;2023-03-01T06:33:16;10.02;;;6.05;;
73571;SDS011;61854;48.510;-2.770;2023-03-01T06:35:45;8.98;;;5.65;;
73571;SDS011;61854;48.510;-2.770;2023-03-01T06:40:44;9.80;;;6.40;;
73571;SDS011;61854;48.510;-2.770;2023-03-01T06:43:10;9.43;;;5.95;;
73571;SDS011;61854;48.510;-2.770;2023-03-01T06:45:36;11.55;;;6.07;;
73571;SDS011;61854;48.510;-2.770;2023-03-01T06:48:03;8.65;;;6.00;;
73571;SDS011;61854;48.510;-2.770;2023-03-01T06:50:29;9.48;;;6.00;;
73571;SDS011;61854;48.510;-2.770;2023-03-01T06:52:56;11.48;;;6.35;;
73571;SDS011;61854;48.510;-2.770;2023-03-01T06:55:22;11.35;;;6.53;;
73571;SDS011;61854;48.510;-2.770;2023-03-01T06:57:47;10.05;;;6.10;;
73571;SDS011;61854;48.510;-2.770;2023-03-01T07:00:13;11.43;;;6.05;;
73571;SDS011;61854;48.510;-2.770;2023-03-01T07:02:39;10.52;;;6.78;;
73571;SDS011;61854;48.510;-2.770;2023-03-01T07:05:05;10.52;;;6.53;;
73571;SDS011;61854;48.510;-2.770;2023-03-01T07:07:31;11.50;;;6.60;;
73571;SDS011;61854;48.510;-2.770;2023-03-01T07:09:57;9.43;;;6.35;;
73571;SDS011;61854;48.510;-2.770;2023-03-01T07:12:22;9.43;;;6.60;;
73571;SDS011;61854;48.510;-2.770;2023-03-01T07:14:48;10.52;;;6.85;;
73571;SDS011;61854;48.510;-2.770;2023-03-01T07:17:14;13.88;;;7.50;;
73571;SDS011;61854;48.510;-2.770;2023-03-01T07:19:39;11.57;;;6.85;;
73571;SDS011;61854;48.510;-2.770;2023-03-01T07:22:05;13.63;;;8.00;;
73571;SDS011;61854;48.510;-2.770;2023-03-01T07:24:33;12.95;;;7.10;;
73571;SDS011;61854;48.510;-2.770;2023-03-01T07:26:58;10.07;;;6.80;;
73571;SDS011;61854;48.510;-2.770;2023-03-01T07:29:24;9.25;;;6.65;;
73571;SDS011;61854;48.510;-2.770;2023-03-01T07:39:36;14.43;;;8.48;;
73571;SDS011;61854;48.510;-2.770;2023-03-01T07:42:02;11.25;;;7.45;;
73571;SDS011;61854;48.510;-2.770;2023-03-01T07:44:27;15.52;;;8.80;;
73571;SDS011;61854;48.510;-2.770;2023-03-01T07:46:56;19.67;;;8.60;;
73571;SDS011;61854;48.510;-2.770;2023-03-01T07:49:23;14.88;;;8.23;;
73571;SDS011;61854;48.510;-2.770;2023-03-01T07:51:48;12.48;;;8.75;;
73571;SDS011;61854;48.510;-2.770;2023-03-01T07:54:14;16.98;;;9.20;;
73571;SDS011;61854;48.510;-2.770;2023-03-01T07:56:40;14.88;;;8.80;;
73571;SDS011;61854;48.510;-2.770;2023-03-01T07:59:05;15.73;;;9.07;;
73571;SDS011;61854;48.510;-2.770;2023-03-01T08:01:33;22.17;;;9.50;;
73571;SDS011;61854;48.510;-2.770;2023-03-01T08:03:59;14.10;;;9.67;;
73571;SDS011;61854;48.510;-2.770;2023-03-01T08:06:25;19.05;;;9.95;;
73571;SDS011;61854;48.510;-2.770;2023-03-01T08:08:50;15.30;;;9.48;;
73571;SDS011;61854;48.510;-2.770;2023-03-01T08:11:16;16.40;;;9.73;;
73571;SDS011;61854;48.510;-2.770;2023-03-01T08:13:42;16.60;;;10.18;;
73571;SDS011;61854;48.510;-2.770;2023-03-01T08:16:11;19.27;;;10.55;;
73571;SDS011;61854;48.510;-2.770;2023-03-01T08:18:39;16.58;;;10.35;;
73571;SDS011;61854;48.510;-2.770;2023-03-01T08:21:09;15.85;;;9.93;;
73571;SDS011;61854;48.510;-2.770;2023-03-01T08:23:36;18.40;;;10.60;;
73571;SDS011;61854;48.510;-2.770;2023-03-01T08:26:03;18.52;;;9.85;;
73571;SDS011;61854;48.510;-2.770;2023-03-01T08:28:30;16.08;;;10.85;;
73571;SDS011;61854;48.510;-2.770;2023-03-01T08:30:56;23.20;;;13.50;;
73571;SDS011;61854;48.510;-2.770;2023-03-01T08:33:25;16.05;;;10.95;;
73571;SDS011;61854;48.510;-2.770;2023-03-01T08:35:51;16.42;;;10.32;;
73571;SDS011;61854;48.510;-2.770;2023-03-01T08:38:16;17.27;;;10.30;;
73571;SDS011;61854;48.510;-2.770;2023-03-01T08:40:42;16.27;;;9.90;;
73571;SDS011;61854;48.510;-2.770;2023-03-01T08:43:08;17.15;;;10.50;;
73571;SDS011;61854;48.510;-2.770;2023-03-01T08:45:34;16.92;;;10.25;;
73571;SDS011;61854;48.510;-2.770;2023-03-01T08:47:59;19.63;;;10.57;;
73571;SDS011;61854;48.510;-2.770;2023-03-01T08:50:25;16.55;;;10.27;;
73571;SDS011;61854;48.510;-2.770;2023-03-01T08:52:51;17.52;;;11.13;;
73571;SDS011;61854;48.510;-2.770;2023-03-01T08:55:17;16.90;;;10.48;;
73571;SDS011;61854;48.510;-2.770;2023-03-01T08:57:43;18.38;;;11.05;;
73571;SDS011;61854;48.510;-2.770;2023-03-01T09:00:09;17.20;;;10.55;;
73571;SDS011;61854;48.510;-2.770;2023-03-01T09:02:39;17.02;;;11.88;;
73571;SDS011;61854;48.510;-2.770;2023-03-01T09:05:08;21.08;;;11.93;;
73571;SDS011;61854;48.510;-2.770;2023-03-01T09:07:33;19.60;;;11.65;;
73571;SDS011;61854;48.510;-2.770;2023-03-01T09:09:59;17.65;;;10.90;;
73571;SDS011;61854;48.510;-2.770;2023-03-01T09:12:25;17.77;;;11.88;;
73571;SDS011;61854;48.510;-2.770;2023-03-01T09:14:50;18.95;;;11.77;;
73571;SDS011;61854;48.510;-2.770;2023-03-01T09:17:16;17.27;;;11.45;;
73571;SDS011;61854;48.510;-2.770;2023-03-01T09:19:42;17.17;;;11.57;;
73571;SDS011;61854;48.510;-2.770;2023-03-01T09:22:08;17.85;;;11.80;;
73571;SDS011;61854;48.510;-2.770;2023-03-01T09:24:33;17.67;;;12.18;;
73571;SDS011;61854;48.510;-2.770;2023-03-01T09:26:59;16.50;;;11.82;;
73571;SDS011;61854;48.510;-2.770;2023-03-01T09:29:25;16.58;;;11.23;;
73571;SDS011;61854;48.510;-2.770;2023-03-01T09:31:51;16.02;;;11.68;;
73571;SDS011;61854;48.510;-2.770;2023-03-01T09:34:20;17.10;;;11.23;;
73571;SDS011;61854;48.510;-2.770;2023-03-01T09:36:48;22.52;;;12.40;;
73571;SDS011;61854;48.510;-2.770;2023-03-01T09:39:15;19.67;;;11.20;;
73571;SDS011;61854;48.510;-2.770;2023-03-01T09:42:01;21.50;;;11.43;;
73571;SDS011;61854;48.510;-2.770;2023-03-01T09:47:07;19.27;;;11.57;;
73571;SDS011;61854;48.510;-2.770;2023-03-01T09:49:41;17.83;;;13.02;;
73571;SDS011;61854;48.510;-2.770;2023-03-01T09:52:47;16.23;;;11.15;;
73571;SDS011;61854;48.510;-2.770;2023-03-01T09:55:14;19.77;;;11.80;;
73571;SDS011;61854;48.510;-2.770;2023-03-01T09:58:00;19.73;;;11.40;;
73571;SDS011;61854;48.510;-2.770;2023-03-01T10:00:47;20.55;;;11.85;;
73571;SDS011;61854;48.510;-2.770;2023-03-01T10:03:16;21.65;;;13.60;;
73571;SDS011;61854;48.510;-2.770;2023-03-01T10:08:46;16.33;;;11.75;;
73571;SDS011;61854;48.510;-2.770;2023-03-01T10:11:23;20.17;;;12.45;;
73571;SDS011;61854;48.510;-2.770;2023-03-01T10:14:43;21.10;;;12.77;;
73571;SDS011;61854;48.510;-2.770;2023-03-01T10:17:03;19.77;;;13.25;;
73571;SDS011;61854;48.510;-2.770;2023-03-01T10:19:36;19.77;;;12.90;;
73571;SDS011;61854;48.510;-2.770;2023-03-01T10:24:48;18.38;;;12.63;;
73571;SDS011;61854;48.510;-2.770;2023-03-01T10:27:22;20.65;;;14.07;;
73571;SDS011;61854;48.510;-2.770;2023-03-01T10:32:28;18.85;;;12.65;;
73571;SDS011;61854;48.510;-2.770;2023-03-01T10:34:54;21.73;;;13.02;;
73571;SDS011;61854;48.510;-2.770;2023-03-01T10:37:23;21.95;;;13.20;;
73571;SDS011;61854;48.510;-2.770;2023-03-01T10:40:24;20.48;;;13.90;;
73571;SDS011;61854;48.510;-2.770;2023-03-01T10:42:47;21.20;;;12.57;;
73571;SDS011;61854;48.510;-2.770;2023-03-01T10:50:49;17.42;;;13.00;;
73571;SDS011;61854;48.510;-2.770;2023-03-01T10:56:07;19.05;;;12.60;;
73571;SDS011;61854;48.510;-2.770;2023-03-01T10:58:41;20.83;;;13.00;;
73571;SDS011;61854;48.510;-2.770;2023-03-01T11:01:31;18.00;;;13.15;;
73571;SDS011;61854;48.510;-2.770;2023-03-01T11:06:31;17.02;;;12.20;;
73571;SDS011;61854;48.510;-2.770;2023-03-01T11:11:38;21.02;;;13.43;;
73571;SDS011;61854;48.510;-2.770;2023-03-01T11:16:40;19.25;;;12.98;;
73571;SDS011;61854;48.510;-2.770;2023-03-01T11:21:34;17.50;;;12.10;;
73571;SDS011;61854;48.510;-2.770;2023-03-01T11:24:03;21.13;;;14.23;;
73571;SDS011;61854;48.510;-2.770;2023-03-01T11:29:00;19.55;;;13.45;;
73571;SDS011;61854;48.510;-2.770;2023-03-01T11:31:30;17.95;;;12.52;;
73571;SDS011;61854;48.510;-2.770;2023-03-01T11:34:03;23.55;;;13.65;;
73571;SDS011;61854;48.510;-2.770;2023-03-01T11:36:51;19.00;;;12.50;;
73571;SDS011;61854;48.510;-2.770;2023-03-01T11:44:38;16.15;;;11.40;;
73571;SDS011;61854;48.510;-2.770;2023-03-01T11:52:48;20.95;;;12.68;;
73571;SDS011;61854;48.510;-2.770;2023-03-01T12:03:36;20.25;;;13.40;;
73571;SDS011;61854;48.510;-2.770;2023-03-01T12:08:45;22.30;;;12.77;;
73571;SDS011;61854;48.510;-2.770;2023-03-01T12:16:23;20.95;;;13.70;;
73571;SDS011;61854;48.510;-2.770;2023-03-01T12:19:01;21.48;;;13.52;;
73571;SDS011;61854;48.510;-2.770;2023-03-01T12:24:10;18.95;;;13.88;;
73571;SDS011;61854;48.510;-2.770;2023-03-01T12:26:54;16.58;;;12.05;;
73571;SDS011;61854;48.510;-2.770;2023-03-01T12:32:35;20.58;;;13.40;;
73571;SDS011;61854;48.510;-2.770;2023-03-01T12:37:54;18.00;;;12.75;;
73571;SDS011;61854;48.510;-2.770;2023-03-01T12:43:33;16.15;;;11.70;;
73571;SDS011;61854;48.510;-2.770;2023-03-01T12:51:30;22.30;;;13.60;;
73571;SDS011;61854;48.510;-2.770;2023-03-01T12:54:02;18.98;;;13.77;;
73571;SDS011;61854;48.510;-2.770;2023-03-01T12:56:41;20.30;;;13.82;;
73571;SDS011;61854;48.510;-2.770;2023-03-01T12:59:15;21.35;;;13.90;;
73571;SDS011;61854;48.510;-2.770;2023-03-01T13:15:31;22.52;;;14.18;;
73571;SDS011;61854;48.510;-2.770;2023-03-01T13:18:00;21.67;;;14.73;;
73571;SDS011;61854;48.510;-2.770;2023-03-01T13:20:34;25.90;;;14.93;;
73571;SDS011;61854;48.510;-2.770;2023-03-01T13:25:59;23.05;;;13.52;;
73571;SDS011;61854;48.510;-2.770;2023-03-01T13:31:03;19.38;;;14.25;;
73571;SDS011;61854;48.510;-2.770;2023-03-01T13:35:58;18.42;;;14.57;;
73571;SDS011;61854;48.510;-2.770;2023-03-01T13:41:11;21.77;;;14.45;;
73571;SDS011;61854;48.510;-2.770;2023-03-01T13:43:39;23.17;;;14.75;;
73571;SDS011;61854;48.510;-2.770;2023-03-01T13:49:03;24.17;;;13.75;;
73571;SDS011;61854;48.510;-2.770;2023-03-01T13:51:28;20.92;;;14.77;;
73571;SDS011;61854;48.510;-2.770;2023-03-01T13:53:56;20.00;;;13.63;;
73571;SDS011;61854;48.510;-2.770;2023-03-01T13:56:27;21.70;;;12.05;;
73571;SDS011;61854;48.510;-2.770;2023-03-01T13:58:59;19.58;;;13.63;;
73571;SDS011;61854;48.510;-2.770;2023-03-01T14:01:33;19.45;;;15.38;;
73571;SDS011;61854;48.510;-2.770;2023-03-01T14:04:01;18.55;;;13.95;;
73571;SDS011;61854;48.510;-2.770;2023-03-01T14:06:29;18.77;;;13.50;;
73571;SDS011;61854;48.510;-2.770;2023-03-01T14:09:10;17.67;;;14.23;;
73571;SDS011;61854;48.510;-2.770;2023-03-01T14:15:06;17.70;;;14.23;;
73571;SDS011;61854;48.510;-2.770;2023-03-01T14:17:55;20.23;;;13.48;;
73571;SDS011;61854;48.510;-2.770;2023-03-01T14:20:40;21.70;;;15.43;;
73571;SDS011;61854;48.510;-2.770;2023-03-01T14:23:15;22.58;;;15.23;;
73571;SDS011;61854;48.510;-2.770;2023-03-01T14:25:48;20.27;;;14.27;;
73571;SDS011;61854;48.510;-2.770;2023-03-01T14:30:51;19.33;;;14.65;;
73571;SDS011;61854;48.510;-2.770;2023-03-01T14:40:57;15.45;;;11.38;;
73571;SDS011;61854;48.510;-2.770;2023-03-01T14:43:26;15.85;;;12.10;;
73571;SDS011;61854;48.510;-2.770;2023-03-01T14:45:54;16.85;;;11.88;;
73571;SDS011;61854;48.510;-2.770;2023-03-01T14:48:20;14.88;;;11.07;;
73571;SDS011;61854;48.510;-2.770;2023-03-01T14:50:46;17.27;;;12.13;;
73571;SDS011;61854;48.510;-2.770;2023-03-01T14:53:26;14.43;;;11.05;;
73571;SDS011;61854;48.510;-2.770;2023-03-01T14:55:55;16.63;;;10.48;;
73571;SDS011;61854;48.510;-2.770;2023-03-01T14:58:27;17.75;;;10.52;;
73571;SDS011;61854;48.510;-2.770;2023-03-01T15:00:57;20.58;;;11.32;;
73571;SDS011;61854;48.510;-2.770;2023-03-01T15:03:35;17.10;;;11.18;;
73571;SDS011;61854;48.510;-2.770;2023-03-01T15:08:30;19.25;;;11.80;;
73571;SDS011;61854;48.510;-2.770;2023-03-01T15:11:00;23.20;;;11.70;;
73571;SDS011;61854;48.510;-2.770;2023-03-01T15:13:32;21.23;;;12.27;;
73571;SDS011;61854;48.510;-2.770;2023-03-01T15:18:30;17.42;;;11.10;;
73571;SDS011;61854;48.510;-2.770;2023-03-01T15:21:08;17.85;;;11.35;;
73571;SDS011;61854;48.510;-2.770;2023-03-01T15:23:38;15.88;;;12.02;;
73571;SDS011;61854;48.510;-2.770;2023-03-01T15:26:05;16.02;;;11.82;;
73571;SDS011;61854;48.510;-2.770;2023-03-01T15:28:32;16.73;;;12.13;;
73571;SDS011;61854;48.510;-2.770;2023-03-01T15:31:03;18.55;;;11.68;;
73571;SDS011;61854;48.510;-2.770;2023-03-01T15:33:38;15.40;;;11.15;;
73571;SDS011;61854;48.510;-2.770;2023-03-01T15:38:56;18.77;;;10.88;;
73571;SDS011;61854;48.510;-2.770;2023-03-01T15:41:24;17.63;;;11.38;;
73571;SDS011;61854;48.510;-2.770;2023-03-01T15:43:58;17.67;;;11.85;;
73571;SDS011;61854;48.510;-2.770;2023-03-01T15:46:33;19.90;;;10.90;;
73571;SDS011;61854;48.510;-2.770;2023-03-01T15:49:05;14.75;;;11.13;;
73571;SDS011;61854;48.510;-2.770;2023-03-01T15:55:03;20.48;;;11.40;;
73571;SDS011;61854;48.510;-2.770;2023-03-01T15:57:31;15.93;;;10.85;;
73571;SDS011;61854;48.510;-2.770;2023-03-01T15:59:57;16.73;;;10.38;;
73571;SDS011;61854;48.510;-2.770;2023-03-01T16:02:23;18.10;;;11.57;;
73571;SDS011;61854;48.510;-2.770;2023-03-01T16:04:49;15.38;;;10.25;;
73571;SDS011;61854;48.510;-2.770;2023-03-01T16:07:15;18.77;;;11.48;;
73571;SDS011;61854;48.510;-2.770;2023-03-01T16:09:41;18.15;;;12.40;;
73571;SDS011;61854;48.510;-2.770;2023-03-01T16:12:12;18.92;;;10.43;;
73571;SDS011;61854;48.510;-2.770;2023-03-01T16:14:40;16.88;;;10.30;;
73571;SDS011;61854;48.510;-2.770;2023-03-01T16:17:05;17.15;;;9.93;;
73571;SDS011;61854;48.510;-2.770;2023-03-01T16:19:34;19.50;;;9.77;;
73571;SDS011;61854;48.510;-2.770;2023-03-01T16:22:05;12.82;;;9.18;;
73571;SDS011;61854;48.510;-2.770;2023-03-01T16:24:30;17.33;;;10.05;;
73571;SDS011;61854;48.510;-2.770;2023-03-01T16:26:56;17.80;;;11.90;;
73571;SDS011;61854;48.510;-2.770;2023-03-01T16:29:22;18.70;;;11.82;;
73571;SDS011;61854;48.510;-2.770;2023-03-01T16:31:48;19.83;;;11.88;;
73571;SDS011;61854;48.510;-2.770;2023-03-01T16:34:13;17.23;;;11.93;;
73571;SDS011;61854;48.510;-2.770;2023-03-01T16:36:39;19.65;;;10.05;;
73571;SDS011;61854;48.510;-2.770;2023-03-01T16:39:08;14.50;;;9.15;;
73571;SDS011;61854;48.510;-2.770;2023-03-01T16:41:34;12.25;;;8.50;;
73571;SDS011;61854;48.510;-2.770;2023-03-01T16:44:00;14.07;;;8.50;;
73571;SDS011;61854;48.510;-2.770;2023-03-01T16:46:26;17.83;;;8.82;;
73571;SDS011;61854;48.510;-2.770;2023-03-01T16:48:53;15.48;;;8.40;;
73571;SDS011;61854;48.510;-2.770;2023-03-01T16:51:20;16.55;;;8.18;;